European Seaway — MPDG3 — position and weather

sailwx.info

Track history (hours):
 
Tides and Currents Weather Stations Pressure Air Temp Water Temp Dewpoint Dewpoint Depression Visibility Wind Speed Wind Dir Waves Ship Positions

European Seaway

Operator: P & O Ferries

Last reported at 2016-May-05 06:33 UTC. Time now 2016-May-05 06:39 UTC.
Position N 50°58' E 001°52'.

Length 175 m; draft 6 m.

Type: Passenger vessel. MMSI: 232001040.

Date/timePositionNaut miles runAvg speedWind from/ knotsBaromVisibWave heightAir tempDewpointWater temp
2016-May-05 06:33N 50°58' E 001°52'0 0.0
2016-May-05 05:34N 50°58' E 001°52'0 0.0
2016-May-05 04:33N 50°58' E 001°52'0 0.0
2016-May-05 03:33N 50°58' E 001°52'0 0.0
2016-May-05 02:33N 50°58' E 001°52'0 0.0
2016-May-05 01:33N 50°58' E 001°52'0 0.0
2016-May-05 00:33N 50°58' E 001°52'0 0.0
2016-May-04 23:34N 50°58' E 001°52'0 0.0
2016-May-04 22:34N 50°58' E 001°52'0 0.0
2016-May-04 21:33N 50°58' E 001°52'0 0.0
2016-May-04 20:34N 50°58' E 001°52'0 0.5
2016-May-04 19:33N 50°58' E 001°51'8 8.0
2016-May-04 18:33N 50°59' E 001°38'1414.1
2016-May-04 17:33N 51°07' E 001°20'0 0.2
2016-May-04 16:29N 51°07' E 001°20'1516.2
2016-May-04 15:34N 50°60' E 001°41'7 7.1
2016-May-04 14:33N 50°58' E 001°52'7 6.8
2016-May-04 13:33N 50°59' E 001°41'1615.7
2016-May-04 12:33N 51°07' E 001°20'0 0.2
2016-May-04 11:33N 51°07' E 001°20'1414.0
2016-May-04 10:34N 51°01' E 001°40'8 8.1
2016-May-04 09:34N 50°58' E 001°52'0 0.1
2016-May-04 08:33N 50°58' E 001°52'0 0.0
2016-May-04 07:34N 50°58' E 001°52'0 0.0
2016-May-04 06:33N 50°58' E 001°52'0 0.0
2016-May-04 05:33N 50°58' E 001°52'0 0.0
2016-May-04 04:33N 50°58' E 001°52'0 0.0
2016-May-04 03:33N 50°58' E 001°52'0 0.0
2016-May-04 02:33N 50°58' E 001°52'0 0.0
2016-May-04 01:33N 50°58' E 001°52'0 0.0
2016-May-04 00:34N 50°58' E 001°52'0 0.0
2016-May-03 23:34N 50°58' E 001°52'0 0.0
2016-May-03 22:33N 50°58' E 001°52'0 0.0
2016-May-03 21:34N 50°58' E 001°52'0 0.0
2016-May-03 20:34N 50°58' E 001°52'0 0.5
2016-May-03 19:33N 50°58' E 001°51'5 5.2
2016-May-03 18:33N 50°58' E 001°43'1615.6
2016-May-03 17:33N 51°07' E 001°22'1 1.4
2016-May-03 16:34N 51°07' E 001°20'1615.7
2016-May-03 15:33N 50°59' E 001°42'6 6.3
2016-May-03 14:34N 50°58' E 001°52'4 3.7
2016-May-03 13:34N 50°58' E 001°46'1818.3
2016-May-03 12:33N 51°07' E 001°21'0 0.2
2016-May-03 11:33N 51°07' E 001°20'1717.2
2016-May-03 10:34N 50°59' E 001°44'5 5.0
2016-May-03 09:34N 50°58' E 001°52'5 4.4
2016-May-03 08:32N 51°00' E 001°46'0 0.0
2016-May-03 07:32N 51°00' E 001°46'0 0.0
2016-May-03 06:32N 51°00' E 001°46'0 0.0
2016-May-03 05:32N 51°00' E 001°46'0 0.1
2016-May-03 04:32N 51°00' E 001°45'0 0.0
2016-May-03 03:29N 51°00' E 001°45'0 0.0
2016-May-03 02:32N 51°00' E 001°45'0 0.1
2016-May-03 01:32N 51°00' E 001°46'0 0.0
2016-May-03 00:32N 51°00' E 001°46'0 0.1
2016-May-02 23:32N 51°00' E 001°46'0 0.0
2016-May-02 22:32N 51°00' E 001°46'0 0.0
2016-May-02 21:33N 51°00' E 001°46'0 0.1
2016-May-02 20:33N 51°01' E 001°45'0 0.0
2016-May-02 19:33N 51°01' E 001°45'0 0.0
2016-May-02 18:34N 51°01' E 001°45'9 9.1
2016-May-02 17:33N 51°03' E 001°31'9 8.4
2016-May-02 16:33N 51°07' E 001°20'1211.7
2016-May-02 15:33N 51°02' E 001°36'1010.4
2016-May-02 14:33N 50°58' E 001°52'5 5.1
2016-May-02 13:34N 50°58' E 001°44'1717.4
2016-May-02 12:33N 51°07' E 001°20'2 1.7
2016-May-02 11:34N 51°07' E 001°23'1817.8
2016-May-02 10:33N 50°58' E 001°48'3 2.3
2016-May-02 09:28N 50°58' E 001°52'5 4.9
2016-May-02 08:31N 51°00' E 001°45'0 0.0
2016-May-02 07:28N 51°00' E 001°45'0 0.0
2016-May-02 06:31N 51°00' E 001°45'0 0.0
2016-May-02 05:31N 51°00' E 001°45'0 0.0
2016-May-02 04:31N 51°00' E 001°45'0 0.1
2016-May-02 03:31N 51°00' E 001°45'0 0.0
2016-May-02 02:31N 51°00' E 001°45'0 0.0
2016-May-02 01:28N 51°00' E 001°45'0 0.1
2016-May-02 00:19N 51°00' E 001°45'0 0.0
2016-May-01 23:31N 51°00' E 001°45'0 0.0
2016-May-01 22:31N 51°00' E 001°45'0 0.0
2016-May-01 21:31N 51°00' E 001°45'0 0.0
2016-May-01 20:31N 51°00' E 001°45'0 0.0
2016-May-01 19:33N 51°00' E 001°45'0 0.0
2016-May-01 18:33N 51°00' E 001°45'0 0.0
2016-May-01 17:33N 51°00' E 001°45'0 0.0
2016-May-01 16:33N 51°00' E 001°45'0 0.1
2016-May-01 15:33N 51°00' E 001°45'0 0.0
2016-May-01 14:33N 51°00' E 001°45'0 0.0
2016-May-01 13:33N 51°00' E 001°45'0 0.0
2016-May-01 12:33N 51°00' E 001°45'0 0.0
2016-May-01 11:33N 51°00' E 001°45'0 0.0
2016-May-01 10:33N 51°00' E 001°45'0 0.0
2016-May-01 09:33N 51°00' E 001°45'0 0.0
2016-May-01 08:33N 51°00' E 001°45'0 0.0
2016-May-01 07:33N 51°00' E 001°45'0 0.0
2016-May-01 06:33N 51°00' E 001°45'0 0.0
2016-May-01 05:33N 51°00' E 001°45'0 0.0
2016-May-01 04:33N 51°00' E 001°45'0 0.1
2016-May-01 03:33N 51°00' E 001°45'0 0.0
2016-May-01 02:33N 51°00' E 001°45'0 0.0
2016-May-01 01:33N 51°00' E 001°45'0 0.0
2016-May-01 00:33N 51°00' E 001°45'0 0.0
2016-Apr-30 23:33N 51°00' E 001°45'0 0.0
2016-Apr-30 22:33N 51°00' E 001°45'0 0.0
2016-Apr-30 21:33N 51°00' E 001°45'0 0.0
2016-Apr-30 20:33N 51°00' E 001°45'0 0.0
2016-Apr-30 19:33N 51°00' E 001°45'6 6.1
2016-Apr-30 18:33N 51°01' E 001°36'1211.9
2016-Apr-30 17:33N 51°07' E 001°20'0 0.1
2016-Apr-30 16:33N 51°07' E 001°20'1716.6
2016-Apr-30 15:33N 50°59' E 001°43'5 5.4
2016-Apr-30 14:34N 50°58' E 001°52'5 5.1
2016-Apr-30 13:34N 50°58' E 001°44'1717.2
2016-Apr-30 12:33N 51°07' E 001°21'0 0.4
2016-Apr-30 11:28N 51°07' E 001°20'1516.6
2016-Apr-30 10:33N 50°60' E 001°41'7 6.9
2016-Apr-30 09:33N 50°58' E 001°52'4 3.9
2016-Apr-30 08:32N 50°60' E 001°46'0 0.0
2016-Apr-30 07:32N 50°60' E 001°46'0 0.1
2016-Apr-30 06:32N 51°00' E 001°46'0 0.0
2016-Apr-30 05:32N 51°00' E 001°46'0 0.0
2016-Apr-30 04:32N 51°00' E 001°46'0 0.1
2016-Apr-30 03:32N 50°60' E 001°46'0 0.0
2016-Apr-30 02:29N 50°60' E 001°46'0 0.0
2016-Apr-30 01:32N 50°60' E 001°46'0 0.1
2016-Apr-30 00:32N 51°00' E 001°46'0 0.0
2016-Apr-29 23:29N 51°00' E 001°46'0 0.1
2016-Apr-29 22:29N 51°00' E 001°46'0 0.1
2016-Apr-29 21:32N 51°00' E 001°46'0 0.1
2016-Apr-29 20:32N 51°00' E 001°46'4 3.7
2016-Apr-29 19:32N 50°58' E 001°51'7 7.2
2016-Apr-29 18:33N 50°59' E 001°40'1514.7
2016-Apr-29 17:33N 51°07' E 001°20'0 0.3
2016-Apr-29 16:33N 51°07' E 001°21'1615.9
2016-Apr-29 15:33N 50°60' E 001°43'6 5.5
2016-Apr-29 14:30N 50°58' E 001°52'1 0.7
2016-Apr-29 13:33N 50°58' E 001°51'4 3.6
2016-Apr-29 12:30N 51°00' E 001°45'0 0.1
2016-Apr-29 11:30N 51°00' E 001°45'4 4.5
2016-Apr-29 10:34N 50°58' E 001°51'0 0.3
2016-Apr-29 09:32N 50°58' E 001°52'0 0.0
2016-Apr-29 08:32N 50°58' E 001°52'0 0.0
2016-Apr-29 07:32N 50°58' E 001°52'0 0.0
2016-Apr-29 06:32N 50°58' E 001°52'0 0.0
2016-Apr-29 05:26N 50°58' E 001°52'0 0.0
2016-Apr-29 04:32N 50°58' E 001°52'0 0.0
2016-Apr-29 03:32N 50°58' E 001°52'0 0.0
2016-Apr-29 02:32N 50°58' E 001°52'0 0.0
2016-Apr-29 01:32N 50°58' E 001°52'0 0.0
2016-Apr-29 00:32N 50°58' E 001°52'0 0.0
2016-Apr-28 23:32N 50°58' E 001°52'0 0.0
2016-Apr-28 22:32N 50°58' E 001°52'0 0.0
2016-Apr-28 21:32N 50°58' E 001°52'0 0.0
2016-Apr-28 20:32N 50°58' E 001°52'2 1.8
2016-Apr-28 19:33N 50°58' E 001°49'1110.7
2016-Apr-28 18:33N 51°02' E 001°33'10 8.6
2016-Apr-28 17:25N 51°07' E 001°20'1 1.2
2016-Apr-28 16:33N 51°07' E 001°22'1514.9
2016-Apr-28 15:33N 50°60' E 001°42'6 6.1
2016-Apr-28 14:33N 50°58' E 001°51'4 4.4
2016-Apr-28 13:33N 50°58' E 001°45'1616.1
2016-Apr-28 12:33N 51°06' E 001°23'2 1.8
2016-Apr-28 11:27N 51°07' E 001°20'1314.2
2016-Apr-28 10:33N 51°02' E 001°38'9 9.0
2016-Apr-28 09:32N 50°58' E 001°52'0 0.3
2016-Apr-28 08:31N 50°58' E 001°52'0 0.0
2016-Apr-28 07:31N 50°58' E 001°52'0 0.0
2016-Apr-28 06:31N 50°58' E 001°52'0 0.0
2016-Apr-28 05:31N 50°58' E 001°52'0 0.0
2016-Apr-28 04:31N 50°58' E 001°52'0 0.0
2016-Apr-28 03:31N 50°58' E 001°52'0 0.0
2016-Apr-28 02:31N 50°58' E 001°52'0 0.0
2016-Apr-28 01:31N 50°58' E 001°52'0 0.0
2016-Apr-28 00:31N 50°58' E 001°52'0 0.0
2016-Apr-27 23:31N 50°58' E 001°52'0 0.0
2016-Apr-27 22:31N 50°58' E 001°52'0 0.0
2016-Apr-27 21:31N 50°58' E 001°52'0 0.0
2016-Apr-27 20:33N 50°58' E 001°52'1 0.6
2016-Apr-27 19:33N 50°58' E 001°51'10 9.7
2016-Apr-27 18:33N 51°00' E 001°36'1211.6
2016-Apr-27 17:30N 51°07' E 001°20'0 0.2
2016-Apr-27 16:33N 51°07' E 001°20'1414.5
2016-Apr-27 15:34N 51°01' E 001°41'7 7.4
2016-Apr-27 14:34N 50°58' E 001°52'5 5.4
2016-Apr-27 13:33N 50°58' E 001°43'1717.3
2016-Apr-27 12:33N 51°07' E 001°20'0 0.1
2016-Apr-27 11:33N 51°07' E 001°20'1515.5
2016-Apr-27 10:33N 51°00' E 001°42'6 6.4
2016-Apr-27 09:33N 50°58' E 001°52'0 0.1
2016-Apr-27 08:34N 50°58' E 001°52'0 0.0
2016-Apr-27 07:34N 50°58' E 001°52'0 0.0
2016-Apr-27 06:33N 50°58' E 001°52'0 0.0
2016-Apr-27 05:33N 50°58' E 001°52'0 0.0
2016-Apr-27 04:33N 50°58' E 001°52'0 0.0
2016-Apr-27 03:34N 50°58' E 001°52'0 0.0
2016-Apr-27 02:34N 50°58' E 001°52'0 0.0
2016-Apr-27 01:34N 50°58' E 001°52'0 0.0
2016-Apr-27 00:34N 50°58' E 001°52'0 0.0
2016-Apr-26 23:34N 50°58' E 001°52'0 0.0
2016-Apr-26 22:34N 50°58' E 001°52'0 0.0
2016-Apr-26 21:33N 50°58' E 001°52'0 0.0
2016-Apr-26 20:34N 50°58' E 001°52'1 0.5
2016-Apr-26 19:34N 50°58' E 001°51'10 9.7
2016-Apr-26 18:33N 51°00' E 001°36'1212.4
2016-Apr-26 17:33N 51°07' E 001°20'2 1.8
2016-Apr-26 16:34N 51°07' E 001°23'1716.6
2016-Apr-26 15:34N 50°58' E 001°45'4 4.1
2016-Apr-26 14:33N 50°58' E 001°52'9 9.3
2016-Apr-26 13:33N 51°00' E 001°37'1313.1
2016-Apr-26 12:33N 51°07' E 001°20'3 3.3
2016-Apr-26 11:33N 51°06' E 001°25'1717.4
2016-Apr-26 10:33N 50°58' E 001°50'1 1.3
2016-Apr-26 09:33N 50°58' E 001°52'0 0.2
2016-Apr-26 08:33N 50°58' E 001°52'0 0.0
2016-Apr-26 07:34N 50°58' E 001°52'0 0.0
2016-Apr-26 06:33N 50°58' E 001°52'0 0.0
2016-Apr-26 05:33N 50°58' E 001°52'0 0.0
2016-Apr-26 04:33N 50°58' E 001°52'0 0.0
2016-Apr-26 03:33N 50°58' E 001°52'0 0.0
2016-Apr-26 02:33N 50°58' E 001°52'0 0.0
2016-Apr-26 01:33N 50°58' E 001°52'0 0.0
2016-Apr-26 00:34N 50°58' E 001°52'0 0.0
2016-Apr-25 23:33N 50°58' E 001°52'0 0.0
2016-Apr-25 22:33N 50°58' E 001°52'0 0.0
2016-Apr-25 21:33N 50°58' E 001°52'0 0.0
2016-Apr-25 20:33N 50°58' E 001°52'1 0.5
2016-Apr-25 19:33N 50°58' E 001°51'7 7.1
2016-Apr-25 18:33N 50°59' E 001°40'1514.8
2016-Apr-25 17:33N 51°07' E 001°20'1 0.7
2016-Apr-25 16:33N 51°07' E 001°21'1414.1
2016-Apr-25 15:33N 51°00' E 001°40'7 7.4
2016-Apr-25 14:34N 50°58' E 001°52'3 2.7
2016-Apr-25 13:34N 50°58' E 001°47'1919.0
2016-Apr-25 12:33N 51°07' E 001°21'0 0.5
2016-Apr-25 11:33N 51°07' E 001°20'1616.2
2016-Apr-25 10:34N 50°59' E 001°42'6 5.9
2016-Apr-25 09:33N 50°58' E 001°52'0 0.1
2016-Apr-25 08:33N 50°58' E 001°52'0 0.0
2016-Apr-25 07:33N 50°58' E 001°52'0 0.0
2016-Apr-25 06:34N 50°58' E 001°52'  
Track history (hours):
 
Tides and Currents Weather Stations Pressure Air Temp Water Temp Dewpoint Dewpoint Depression Visibility Wind Speed Wind Dir Waves Ship Positions

European Seaway

Operator: P & O Ferries

Last reported at 2016-May-05 06:33 UTC. Time now 2016-May-05 06:39 UTC.
Position N 50°58' E 001°52'.

Length 175 m; draft 6 m.

Type: Passenger vessel. MMSI: 232001040.

Date/timePositionNaut miles runAvg speedWind from/ knotsBaromVisibWave heightAir tempDewpointWater temp
2016-May-05 06:33N 50°58' E 001°52'0 0.0
2016-May-05 05:34N 50°58' E 001°52'0 0.0
2016-May-05 04:33N 50°58' E 001°52'0 0.0
2016-May-05 03:33N 50°58' E 001°52'0 0.0
2016-May-05 02:33N 50°58' E 001°52'0 0.0
2016-May-05 01:33N 50°58' E 001°52'0 0.0
2016-May-05 00:33N 50°58' E 001°52'0 0.0
2016-May-04 23:34N 50°58' E 001°52'0 0.0
2016-May-04 22:34N 50°58' E 001°52'0 0.0
2016-May-04 21:33N 50°58' E 001°52'0 0.0
2016-May-04 20:34N 50°58' E 001°52'0 0.5
2016-May-04 19:33N 50°58' E 001°51'8 8.0
2016-May-04 18:33N 50°59' E 001°38'1414.1
2016-May-04 17:33N 51°07' E 001°20'0 0.2
2016-May-04 16:29N 51°07' E 001°20'1516.2
2016-May-04 15:34N 50°60' E 001°41'7 7.1
2016-May-04 14:33N 50°58' E 001°52'7 6.8
2016-May-04 13:33N 50°59' E 001°41'1615.7
2016-May-04 12:33N 51°07' E 001°20'0 0.2
2016-May-04 11:33N 51°07' E 001°20'1414.0
2016-May-04 10:34N 51°01' E 001°40'8 8.1
2016-May-04 09:34N 50°58' E 001°52'0 0.1
2016-May-04 08:33N 50°58' E 001°52'0 0.0
2016-May-04 07:34N 50°58' E 001°52'0 0.0
2016-May-04 06:33N 50°58' E 001°52'0 0.0
2016-May-04 05:33N 50°58' E 001°52'0 0.0
2016-May-04 04:33N 50°58' E 001°52'0 0.0
2016-May-04 03:33N 50°58' E 001°52'0 0.0
2016-May-04 02:33N 50°58' E 001°52'0 0.0
2016-May-04 01:33N 50°58' E 001°52'0 0.0
2016-May-04 00:34N 50°58' E 001°52'0 0.0
2016-May-03 23:34N 50°58' E 001°52'0 0.0
2016-May-03 22:33N 50°58' E 001°52'0 0.0
2016-May-03 21:34N 50°58' E 001°52'0 0.0
2016-May-03 20:34N 50°58' E 001°52'0 0.5
2016-May-03 19:33N 50°58' E 001°51'5 5.2
2016-May-03 18:33N 50°58' E 001°43'1615.6
2016-May-03 17:33N 51°07' E 001°22'1 1.4
2016-May-03 16:34N 51°07' E 001°20'1615.7
2016-May-03 15:33N 50°59' E 001°42'6 6.3
2016-May-03 14:34N 50°58' E 001°52'4 3.7
2016-May-03 13:34N 50°58' E 001°46'1818.3
2016-May-03 12:33N 51°07' E 001°21'0 0.2
2016-May-03 11:33N 51°07' E 001°20'1717.2
2016-May-03 10:34N 50°59' E 001°44'5 5.0
2016-May-03 09:34N 50°58' E 001°52'5 4.4
2016-May-03 08:32N 51°00' E 001°46'0 0.0
2016-May-03 07:32N 51°00' E 001°46'0 0.0
2016-May-03 06:32N 51°00' E 001°46'0 0.0
2016-May-03 05:32N 51°00' E 001°46'0 0.1
2016-May-03 04:32N 51°00' E 001°45'0 0.0
2016-May-03 03:29N 51°00' E 001°45'0 0.0
2016-May-03 02:32N 51°00' E 001°45'0 0.1
2016-May-03 01:32N 51°00' E 001°46'0 0.0
2016-May-03 00:32N 51°00' E 001°46'0 0.1
2016-May-02 23:32N 51°00' E 001°46'0 0.0
2016-May-02 22:32N 51°00' E 001°46'0 0.0
2016-May-02 21:33N 51°00' E 001°46'0 0.1
2016-May-02 20:33N 51°01' E 001°45'0 0.0
2016-May-02 19:33N 51°01' E 001°45'0 0.0
2016-May-02 18:34N 51°01' E 001°45'9 9.1
2016-May-02 17:33N 51°03' E 001°31'9 8.4
2016-May-02 16:33N 51°07' E 001°20'1211.7
2016-May-02 15:33N 51°02' E 001°36'1010.4
2016-May-02 14:33N 50°58' E 001°52'5 5.1
2016-May-02 13:34N 50°58' E 001°44'1717.4
2016-May-02 12:33N 51°07' E 001°20'2 1.7
2016-May-02 11:34N 51°07' E 001°23'1817.8
2016-May-02 10:33N 50°58' E 001°48'3 2.3
2016-May-02 09:28N 50°58' E 001°52'5 4.9
2016-May-02 08:31N 51°00' E 001°45'0 0.0
2016-May-02 07:28N 51°00' E 001°45'0 0.0
2016-May-02 06:31N 51°00' E 001°45'0 0.0
2016-May-02 05:31N 51°00' E 001°45'0 0.0
2016-May-02 04:31N 51°00' E 001°45'0 0.1
2016-May-02 03:31N 51°00' E 001°45'0 0.0
2016-May-02 02:31N 51°00' E 001°45'0 0.0
2016-May-02 01:28N 51°00' E 001°45'0 0.1
2016-May-02 00:19N 51°00' E 001°45'0 0.0
2016-May-01 23:31N 51°00' E 001°45'0 0.0
2016-May-01 22:31N 51°00' E 001°45'0 0.0
2016-May-01 21:31N 51°00' E 001°45'0 0.0
2016-May-01 20:31N 51°00' E 001°45'0 0.0
2016-May-01 19:33N 51°00' E 001°45'0 0.0
2016-May-01 18:33N 51°00' E 001°45'0 0.0
2016-May-01 17:33N 51°00' E 001°45'0 0.0
2016-May-01 16:33N 51°00' E 001°45'0 0.1
2016-May-01 15:33N 51°00' E 001°45'0 0.0
2016-May-01 14:33N 51°00' E 001°45'0 0.0
2016-May-01 13:33N 51°00' E 001°45'0 0.0
2016-May-01 12:33N 51°00' E 001°45'0 0.0
2016-May-01 11:33N 51°00' E 001°45'0 0.0
2016-May-01 10:33N 51°00' E 001°45'0 0.0
2016-May-01 09:33N 51°00' E 001°45'0 0.0
2016-May-01 08:33N 51°00' E 001°45'0 0.0
2016-May-01 07:33N 51°00' E 001°45'0 0.0
2016-May-01 06:33N 51°00' E 001°45'0 0.0
2016-May-01 05:33N 51°00' E 001°45'0 0.0
2016-May-01 04:33N 51°00' E 001°45'0 0.1
2016-May-01 03:33N 51°00' E 001°45'0 0.0
2016-May-01 02:33N 51°00' E 001°45'0 0.0
2016-May-01 01:33N 51°00' E 001°45'0 0.0
2016-May-01 00:33N 51°00' E 001°45'0 0.0
2016-Apr-30 23:33N 51°00' E 001°45'0 0.0
2016-Apr-30 22:33N 51°00' E 001°45'0 0.0
2016-Apr-30 21:33N 51°00' E 001°45'0 0.0
2016-Apr-30 20:33N 51°00' E 001°45'0 0.0
2016-Apr-30 19:33N 51°00' E 001°45'6 6.1
2016-Apr-30 18:33N 51°01' E 001°36'1211.9
2016-Apr-30 17:33N 51°07' E 001°20'0 0.1
2016-Apr-30 16:33N 51°07' E 001°20'1716.6
2016-Apr-30 15:33N 50°59' E 001°43'5 5.4
2016-Apr-30 14:34N 50°58' E 001°52'5 5.1
2016-Apr-30 13:34N 50°58' E 001°44'1717.2
2016-Apr-30 12:33N 51°07' E 001°21'0 0.4
2016-Apr-30 11:28N 51°07' E 001°20'1516.6
2016-Apr-30 10:33N 50°60' E 001°41'7 6.9
2016-Apr-30 09:33N 50°58' E 001°52'4 3.9
2016-Apr-30 08:32N 50°60' E 001°46'0 0.0
2016-Apr-30 07:32N 50°60' E 001°46'0 0.1
2016-Apr-30 06:32N 51°00' E 001°46'0 0.0
2016-Apr-30 05:32N 51°00' E 001°46'0 0.0
2016-Apr-30 04:32N 51°00' E 001°46'0 0.1
2016-Apr-30 03:32N 50°60' E 001°46'0 0.0
2016-Apr-30 02:29N 50°60' E 001°46'0 0.0
2016-Apr-30 01:32N 50°60' E 001°46'0 0.1
2016-Apr-30 00:32N 51°00' E 001°46'0 0.0
2016-Apr-29 23:29N 51°00' E 001°46'0 0.1
2016-Apr-29 22:29N 51°00' E 001°46'0 0.1
2016-Apr-29 21:32N 51°00' E 001°46'0 0.1
2016-Apr-29 20:32N 51°00' E 001°46'4 3.7
2016-Apr-29 19:32N 50°58' E 001°51'7 7.2
2016-Apr-29 18:33N 50°59' E 001°40'1514.7
2016-Apr-29 17:33N 51°07' E 001°20'0 0.3
2016-Apr-29 16:33N 51°07' E 001°21'1615.9
2016-Apr-29 15:33N 50°60' E 001°43'6 5.5
2016-Apr-29 14:30N 50°58' E 001°52'1 0.7
2016-Apr-29 13:33N 50°58' E 001°51'4 3.6
2016-Apr-29 12:30N 51°00' E 001°45'0 0.1
2016-Apr-29 11:30N 51°00' E 001°45'4 4.5
2016-Apr-29 10:34N 50°58' E 001°51'0 0.3
2016-Apr-29 09:32N 50°58' E 001°52'0 0.0
2016-Apr-29 08:32N 50°58' E 001°52'0 0.0
2016-Apr-29 07:32N 50°58' E 001°52'0 0.0
2016-Apr-29 06:32N 50°58' E 001°52'0 0.0
2016-Apr-29 05:26N 50°58' E 001°52'0 0.0
2016-Apr-29 04:32N 50°58' E 001°52'0 0.0
2016-Apr-29 03:32N 50°58' E 001°52'0 0.0
2016-Apr-29 02:32N 50°58' E 001°52'0 0.0
2016-Apr-29 01:32N 50°58' E 001°52'0 0.0
2016-Apr-29 00:32N 50°58' E 001°52'0 0.0
2016-Apr-28 23:32N 50°58' E 001°52'0 0.0
2016-Apr-28 22:32N 50°58' E 001°52'0 0.0
2016-Apr-28 21:32N 50°58' E 001°52'0 0.0
2016-Apr-28 20:32N 50°58' E 001°52'2 1.8
2016-Apr-28 19:33N 50°58' E 001°49'1110.7
2016-Apr-28 18:33N 51°02' E 001°33'10 8.6
2016-Apr-28 17:25N 51°07' E 001°20'1 1.2
2016-Apr-28 16:33N 51°07' E 001°22'1514.9
2016-Apr-28 15:33N 50°60' E 001°42'6 6.1
2016-Apr-28 14:33N 50°58' E 001°51'4 4.4
2016-Apr-28 13:33N 50°58' E 001°45'1616.1
2016-Apr-28 12:33N 51°06' E 001°23'2 1.8
2016-Apr-28 11:27N 51°07' E 001°20'1314.2
2016-Apr-28 10:33N 51°02' E 001°38'9 9.0
2016-Apr-28 09:32N 50°58' E 001°52'0 0.3
2016-Apr-28 08:31N 50°58' E 001°52'0 0.0
2016-Apr-28 07:31N 50°58' E 001°52'0 0.0
2016-Apr-28 06:31N 50°58' E 001°52'0 0.0
2016-Apr-28 05:31N 50°58' E 001°52'0 0.0
2016-Apr-28 04:31N 50°58' E 001°52'0 0.0
2016-Apr-28 03:31N 50°58' E 001°52'0 0.0
2016-Apr-28 02:31N 50°58' E 001°52'0 0.0
2016-Apr-28 01:31N 50°58' E 001°52'0 0.0
2016-Apr-28 00:31N 50°58' E 001°52'0 0.0
2016-Apr-27 23:31N 50°58' E 001°52'0 0.0
2016-Apr-27 22:31N 50°58' E 001°52'0 0.0
2016-Apr-27 21:31N 50°58' E 001°52'0 0.0
2016-Apr-27 20:33N 50°58' E 001°52'1 0.6
2016-Apr-27 19:33N 50°58' E 001°51'10 9.7
2016-Apr-27 18:33N 51°00' E 001°36'1211.6
2016-Apr-27 17:30N 51°07' E 001°20'0 0.2
2016-Apr-27 16:33N 51°07' E 001°20'1414.5
2016-Apr-27 15:34N 51°01' E 001°41'7 7.4
2016-Apr-27 14:34N 50°58' E 001°52'5 5.4
2016-Apr-27 13:33N 50°58' E 001°43'1717.3
2016-Apr-27 12:33N 51°07' E 001°20'0 0.1
2016-Apr-27 11:33N 51°07' E 001°20'1515.5
2016-Apr-27 10:33N 51°00' E 001°42'6 6.4
2016-Apr-27 09:33N 50°58' E 001°52'0 0.1
2016-Apr-27 08:34N 50°58' E 001°52'0 0.0
2016-Apr-27 07:34N 50°58' E 001°52'0 0.0
2016-Apr-27 06:33N 50°58' E 001°52'0 0.0
2016-Apr-27 05:33N 50°58' E 001°52'0 0.0
2016-Apr-27 04:33N 50°58' E 001°52'0 0.0
2016-Apr-27 03:34N 50°58' E 001°52'0 0.0
2016-Apr-27 02:34N 50°58' E 001°52'0 0.0
2016-Apr-27 01:34N 50°58' E 001°52'0 0.0
2016-Apr-27 00:34N 50°58' E 001°52'0 0.0
2016-Apr-26 23:34N 50°58' E 001°52'0 0.0
2016-Apr-26 22:34N 50°58' E 001°52'0 0.0
2016-Apr-26 21:33N 50°58' E 001°52'0 0.0
2016-Apr-26 20:34N 50°58' E 001°52'1 0.5
2016-Apr-26 19:34N 50°58' E 001°51'10 9.7
2016-Apr-26 18:33N 51°00' E 001°36'1212.4
2016-Apr-26 17:33N 51°07' E 001°20'2 1.8
2016-Apr-26 16:34N 51°07' E 001°23'1716.6
2016-Apr-26 15:34N 50°58' E 001°45'4 4.1
2016-Apr-26 14:33N 50°58' E 001°52'9 9.3
2016-Apr-26 13:33N 51°00' E 001°37'1313.1
2016-Apr-26 12:33N 51°07' E 001°20'3 3.3
2016-Apr-26 11:33N 51°06' E 001°25'1717.4
2016-Apr-26 10:33N 50°58' E 001°50'1 1.3
2016-Apr-26 09:33N 50°58' E 001°52'0 0.2
2016-Apr-26 08:33N 50°58' E 001°52'0 0.0
2016-Apr-26 07:34N 50°58' E 001°52'0 0.0
2016-Apr-26 06:33N 50°58' E 001°52'0 0.0
2016-Apr-26 05:33N 50°58' E 001°52'0 0.0
2016-Apr-26 04:33N 50°58' E 001°52'0 0.0
2016-Apr-26 03:33N 50°58' E 001°52'0 0.0
2016-Apr-26 02:33N 50°58' E 001°52'0 0.0
2016-Apr-26 01:33N 50°58' E 001°52'0 0.0
2016-Apr-26 00:34N 50°58' E 001°52'0 0.0
2016-Apr-25 23:33N 50°58' E 001°52'0 0.0
2016-Apr-25 22:33N 50°58' E 001°52'0 0.0
2016-Apr-25 21:33N 50°58' E 001°52'0 0.0
2016-Apr-25 20:33N 50°58' E 001°52'1 0.5
2016-Apr-25 19:33N 50°58' E 001°51'7 7.1
2016-Apr-25 18:33N 50°59' E 001°40'1514.8
2016-Apr-25 17:33N 51°07' E 001°20'1 0.7
2016-Apr-25 16:33N 51°07' E 001°21'1414.1
2016-Apr-25 15:33N 51°00' E 001°40'7 7.4
2016-Apr-25 14:34N 50°58' E 001°52'3 2.7
2016-Apr-25 13:34N 50°58' E 001°47'1919.0
2016-Apr-25 12:33N 51°07' E 001°21'0 0.5
2016-Apr-25 11:33N 51°07' E 001°20'1616.2
2016-Apr-25 10:34N 50°59' E 001°42'6 5.9
2016-Apr-25 09:33N 50°58' E 001°52'0 0.1
2016-Apr-25 08:33N 50°58' E 001°52'0 0.0
2016-Apr-25 07:33N 50°58' E 001°52'0 0.0
2016-Apr-25 06:34N 50°58' E 001°52'  

Dump ship's entire track history